createdAt,value
2022-12-19T00:00:36.707Z,27.73
2022-12-19T00:03:04.968Z,29.80
2022-12-19T00:05:36.880Z,28.33
2022-12-19T00:08:11.409Z,26.05
2022-12-19T00:10:55.980Z,29.67
2022-12-19T00:13:24.596Z,29.60
2022-12-19T00:15:52.807Z,25.98
2022-12-19T00:18:20.822Z,24.15
2022-12-19T00:20:56.496Z,27.23
2022-12-19T00:23:24.462Z,25.05
2022-12-19T00:25:53.883Z,30.25
2022-12-19T00:28:21.810Z,24.95
2022-12-19T00:30:49.782Z,27.40
2022-12-19T00:33:19.584Z,27.52
2022-12-19T00:35:47.440Z,30.25
2022-12-19T00:38:15.304Z,30.60
2022-12-19T00:40:43.200Z,28.33
2022-12-19T00:43:12.642Z,31.33
2022-12-19T00:45:40.551Z,24.77
2022-12-19T00:48:08.578Z,28.45
2022-12-19T00:50:38.407Z,27.67
2022-12-19T00:53:06.310Z,27.40
2022-12-19T00:55:34.272Z,27.60
2022-12-19T00:58:02.236Z,23.90
2022-12-19T01:00:31.676Z,30.92
2022-12-19T01:02:59.827Z,26.27
2022-12-19T01:05:29.785Z,25.65
2022-12-19T01:07:58.604Z,28.98
2022-12-19T01:10:26.515Z,29.83
2022-12-19T01:12:53.452Z,30.00
2022-12-19T01:15:22.404Z,28.42
2022-12-19T01:17:51.955Z,27.80
2022-12-19T01:20:29.705Z,33.03
2022-12-19T01:22:59.984Z,28.83
2022-12-19T01:25:28.438Z,31.00
2022-12-19T01:27:56.579Z,28.30
2022-12-19T01:30:24.557Z,29.52
2022-12-19T01:32:53.933Z,34.35
2022-12-19T01:35:22.429Z,32.25
2022-12-19T01:37:51.142Z,38.08
2022-12-19T01:40:20.005Z,36.60
2022-12-19T01:42:49.167Z,33.17
2022-12-19T01:45:34.451Z,28.70
2022-12-19T01:48:15.852Z,32.50
2022-12-19T01:51:00.593Z,32.78
2022-12-19T01:53:34.605Z,31.58
2022-12-19T01:56:10.129Z,33.05
2022-12-19T01:58:42.764Z,31.52
2022-12-19T02:01:10.861Z,33.08
2022-12-19T02:03:41.607Z,28.88
2022-12-19T02:06:10.475Z,33.58
2022-12-19T02:08:39.050Z,31.10
2022-12-19T02:11:07.285Z,32.47
2022-12-19T02:13:35.659Z,34.78
2022-12-19T02:16:14.187Z,34.63
2022-12-19T02:18:51.857Z,31.85
2022-12-19T02:21:45.972Z,33.38
2022-12-19T02:24:45.525Z,34.33
2022-12-19T02:27:46.554Z,30.95
2022-12-19T02:30:17.399Z,30.58
2022-12-19T02:33:01.612Z,30.92
2022-12-19T02:35:35.013Z,35.50
2022-12-19T02:38:13.370Z,31.40
2022-12-19T02:40:45.093Z,27.45
2022-12-19T02:43:14.954Z,31.52
2022-12-19T02:45:44.643Z,33.35
2022-12-19T02:48:19.059Z,32.35
2022-12-19T02:50:50.191Z,29.13
2022-12-19T02:53:21.796Z,29.33
2022-12-19T02:55:59.448Z,35.85
2022-12-19T02:58:50.873Z,33.25
2022-12-19T03:01:31.555Z,34.78
2022-12-19T03:04:11.765Z,35.38
2022-12-19T03:06:47.929Z,35.93
2022-12-19T03:09:22.411Z,35.42
2022-12-19T03:11:58.624Z,34.22
2022-12-19T03:14:28.025Z,40.15
2022-12-19T03:16:56.164Z,35.83
2022-12-19T03:19:25.845Z,38.22
2022-12-19T03:21:53.934Z,36.22
2022-12-19T03:24:22.009Z,35.45
2022-12-19T03:26:54.571Z,36.75
2022-12-19T03:29:28.359Z,33.92
2022-12-19T03:31:57.678Z,32.50
2022-12-19T03:34:32.494Z,32.05
2022-12-19T03:37:04.877Z,28.85
2022-12-19T03:39:35.164Z,36.22
2022-12-19T03:42:23.488Z,24.65
2022-12-19T03:44:52.041Z,29.52
2022-12-19T03:47:25.198Z,28.40
2022-12-19T03:49:54.675Z,26.60
2022-12-19T03:52:30.991Z,27.42
2022-12-19T03:55:05.759Z,28.10
2022-12-19T03:57:38.956Z,29.70
2022-12-19T04:00:08.970Z,31.20
2022-12-19T04:02:39.249Z,26.40
2022-12-19T04:05:15.179Z,29.30
2022-12-19T04:07:43.591Z,28.08
2022-12-19T04:10:16.649Z,27.17
2022-12-19T04:12:49.766Z,25.20
2022-12-19T04:15:18.340Z,26.95
2022-12-19T04:17:51.246Z,28.45
2022-12-19T04:20:22.805Z,22.80
2022-12-19T04:22:55.338Z,26.43
2022-12-19T04:25:29.741Z,22.40
2022-12-19T04:28:01.327Z,27.05
2022-12-19T04:30:29.703Z,25.10
2022-12-19T04:33:04.624Z,24.08
2022-12-19T04:35:35.274Z,23.73
2022-12-19T04:38:03.617Z,24.15
2022-12-19T04:40:36.550Z,23.75
2022-12-19T04:43:08.335Z,24.98
2022-12-19T04:45:36.519Z,20.25
2022-12-19T04:48:04.880Z,25.10
2022-12-19T04:50:37.477Z,18.48
2022-12-19T04:53:05.720Z,17.95
2022-12-19T04:55:33.667Z,17.52
2022-12-19T04:58:06.127Z,21.48
2022-12-19T05:03:02.432Z,21.60
2022-12-19T05:05:30.601Z,19.48
2022-12-19T05:08:02.964Z,21.02
2022-12-19T05:10:30.898Z,18.15
2022-12-19T05:12:58.787Z,18.27
2022-12-19T05:15:26.766Z,21.55
2022-12-19T05:17:54.841Z,19.48
2022-12-19T05:20:22.878Z,17.77
2022-12-19T05:22:50.846Z,19.70
2022-12-19T05:25:20.224Z,15.68
2022-12-19T05:27:48.325Z,18.42
2022-12-19T05:30:16.802Z,15.73
2022-12-19T05:32:44.873Z,18.25
2022-12-19T05:35:12.818Z,15.90
2022-12-19T05:37:40.874Z,18.25
2022-12-19T05:40:10.083Z,16.42
2022-12-19T05:42:39.422Z,12.95
2022-12-19T05:45:08.744Z,14.45
2022-12-19T05:47:38.061Z,18.00
2022-12-19T05:50:07.081Z,19.52
2022-12-19T05:52:34.939Z,16.33
2022-12-19T05:55:02.894Z,15.55
2022-12-19T05:57:30.908Z,16.10
2022-12-19T06:00:00.276Z,18.90
2022-12-19T06:02:28.396Z,18.35
2022-12-19T06:04:56.274Z,15.30
2022-12-19T06:07:24.099Z,15.55
2022-12-19T06:09:51.991Z,15.65
2022-12-19T06:12:19.964Z,12.30
2022-12-19T06:14:47.833Z,14.07
2022-12-19T06:17:17.106Z,13.57
2022-12-19T06:19:45.887Z,16.88
2022-12-19T06:22:13.978Z,16.35
2022-12-19T06:24:42.025Z,15.23
2022-12-19T06:27:09.883Z,15.63
2022-12-19T06:29:37.741Z,15.88
2022-12-19T06:32:05.813Z,13.63
2022-12-19T06:35:02.770Z,15.05
2022-12-19T06:37:23.028Z,15.15
2022-12-19T06:39:51.712Z,15.43
2022-12-19T06:42:24.556Z,14.15
2022-12-19T06:44:54.086Z,15.30
2022-12-19T06:47:23.403Z,14.43
2022-12-19T06:49:52.816Z,13.90
2022-12-19T06:52:20.722Z,14.50
2022-12-19T06:54:48.771Z,12.80
2022-12-19T06:57:16.703Z,17.30
2022-12-19T06:59:44.650Z,14.30
2022-12-19T07:02:27.248Z,15.38
2022-12-19T07:07:26.700Z,14.25
2022-12-19T07:09:54.816Z,14.05
2022-12-19T07:12:22.890Z,12.80
2022-12-19T07:14:53.606Z,13.50
2022-12-19T07:17:23.350Z,15.77
2022-12-19T07:19:51.566Z,10.98
2022-12-19T07:22:21.225Z,14.75
2022-12-19T07:24:49.442Z,13.75
2022-12-19T07:27:17.594Z,9.63
2022-12-19T07:29:45.518Z,14.05
2022-12-19T07:32:13.517Z,12.95
2022-12-19T07:34:41.494Z,10.18
2022-12-19T07:37:09.445Z,9.13
2022-12-19T07:39:38.812Z,11.05
2022-12-19T07:42:06.785Z,8.80
2022-12-19T07:44:34.802Z,7.63
2022-12-19T07:47:02.715Z,9.00
2022-12-19T07:49:30.727Z,9.57
2022-12-19T07:51:58.699Z,10.00
2022-12-19T07:54:26.650Z,8.60
2022-12-19T07:56:56.565Z,9.60
2022-12-19T07:59:29.596Z,7.45
2022-12-19T08:01:58.541Z,8.18
2022-12-19T08:04:27.382Z,11.15
2022-12-19T08:06:55.347Z,8.13
2022-12-19T08:09:23.224Z,9.23
2022-12-19T08:11:51.105Z,7.53
2022-12-19T08:14:20.527Z,9.60
2022-12-19T08:17:19.416Z,6.68
2022-12-19T08:19:36.532Z,8.82
2022-12-19T08:22:04.640Z,10.07
2022-12-19T08:24:32.618Z,13.82
2022-12-19T08:27:00.745Z,11.45
2022-12-19T08:29:30.249Z,15.32
2022-12-19T08:31:58.218Z,15.10
2022-12-19T08:34:26.070Z,13.52
2022-12-19T08:36:54.069Z,10.27
2022-12-19T08:39:22.044Z,13.50
2022-12-19T08:41:50.043Z,9.77
2022-12-19T08:44:18.013Z,10.88
2022-12-19T08:46:50.305Z,9.57
2022-12-19T08:49:18.780Z,9.63
2022-12-19T08:51:47.039Z,10.75
2022-12-19T08:54:15.283Z,8.80
2022-12-19T08:56:45.966Z,9.25
2022-12-19T08:59:15.033Z,9.23
2022-12-19T09:01:55.081Z,8.70
2022-12-19T09:05:17.837Z,8.85
2022-12-19T09:07:15.278Z,9.38
2022-12-19T09:09:44.199Z,7.10
2022-12-19T09:12:13.747Z,7.15
2022-12-19T09:14:41.655Z,7.15
2022-12-19T09:17:11.122Z,9.15
2022-12-19T09:19:39.274Z,8.15
2022-12-19T09:22:12.385Z,6.05
2022-12-19T09:24:40.400Z,7.53
2022-12-19T09:27:08.379Z,12.73
2022-12-19T09:29:36.263Z,9.18
2022-12-19T09:32:04.366Z,6.88
2022-12-19T09:34:37.607Z,6.95
2022-12-19T09:37:07.031Z,6.93
2022-12-19T09:39:35.981Z,10.43
2022-12-19T09:42:41.232Z,10.60
2022-12-19T09:45:33.192Z,7.68
2022-12-19T09:48:02.198Z,9.30
2022-12-19T09:50:44.799Z,11.55
2022-12-19T09:53:23.003Z,7.30
2022-12-19T09:55:55.002Z,8.55
2022-12-19T09:58:32.572Z,7.10
2022-12-19T10:01:05.800Z,7.93
2022-12-19T10:03:40.263Z,5.63
2022-12-19T10:07:12.834Z,10.02
2022-12-19T10:11:13.950Z,6.53
2022-12-19T10:12:45.448Z,9.48
2022-12-19T10:15:07.441Z,5.55
2022-12-19T10:17:52.609Z,8.20
2022-12-19T10:20:25.470Z,7.00
2022-12-19T10:23:08.737Z,5.53
2022-12-19T10:25:59.614Z,7.40
2022-12-19T10:28:46.352Z,9.07
2022-12-19T10:31:21.898Z,5.75
2022-12-19T10:33:56.705Z,9.15
2022-12-19T10:36:48.615Z,7.38
2022-12-19T10:39:24.967Z,8.10
2022-12-19T10:41:58.173Z,6.55
2022-12-19T10:44:30.843Z,6.45
2022-12-19T10:46:58.776Z,8.07
2022-12-19T10:49:28.426Z,7.40
2022-12-19T10:52:00.595Z,8.75
2022-12-19T10:54:41.557Z,7.57
2022-12-19T10:57:25.284Z,7.78
2022-12-19T10:59:58.655Z,5.40
2022-12-19T11:02:41.410Z,6.78
2022-12-19T11:05:24.395Z,7.90
2022-12-19T11:08:04.132Z,11.85
2022-12-19T11:11:55.919Z,7.20
2022-12-19T11:19:13.258Z,6.13
2022-12-19T11:22:17.160Z,6.22
2022-12-19T11:29:15.462Z,8.10
2022-12-19T11:29:26.685Z,6.03
2022-12-19T11:29:33.806Z,7.53
2022-12-19T11:30:45.893Z,5.68
2022-12-19T11:34:05.245Z,10.07
2022-12-19T11:36:39.997Z,8.48
2022-12-19T11:39:14.470Z,5.90
2022-12-19T11:41:47.504Z,9.43
2022-12-19T11:44:27.289Z,8.40
2022-12-19T11:47:04.674Z,7.13
2022-12-19T11:49:37.145Z,7.65
2022-12-19T11:52:29.804Z,9.25
2022-12-19T11:55:07.323Z,8.73
2022-12-19T11:57:36.146Z,10.47
2022-12-19T12:00:06.729Z,8.98
2022-12-19T12:03:03.398Z,7.05
2022-12-19T12:05:44.641Z,7.50
2022-12-19T12:09:39.384Z,7.60
2022-12-19T12:17:46.233Z,10.02
2022-12-19T12:22:21.846Z,12.15
2022-12-19T12:31:15.190Z,11.30
2022-12-19T12:31:23.394Z,10.25
2022-12-19T12:31:26.006Z,11.35
2022-12-19T12:31:52.923Z,11.02
2022-12-19T12:32:05.785Z,10.23
2022-12-19T12:35:29.217Z,10.02
2022-12-19T12:38:52.500Z,14.18
2022-12-19T12:41:42.745Z,11.55
2022-12-19T12:44:13.307Z,13.63
2022-12-19T12:46:45.767Z,11.70
2022-12-19T12:49:36.686Z,10.73
2022-12-19T12:52:07.758Z,16.20
2022-12-19T12:54:39.091Z,11.95
2022-12-19T12:57:07.268Z,11.85
2022-12-19T12:59:35.343Z,15.38
2022-12-19T13:02:15.531Z,10.65
2022-12-19T13:04:57.458Z,9.55
2022-12-19T13:07:43.161Z,12.63
2022-12-19T13:10:25.368Z,13.18
2022-12-19T13:13:01.050Z,8.95
2022-12-19T13:15:43.595Z,19.17
2022-12-19T13:18:37.691Z,15.90
2022-12-19T13:21:10.528Z,17.02
2022-12-19T13:23:47.163Z,13.50
2022-12-19T13:26:51.074Z,14.10
2022-12-19T13:29:54.912Z,10.82
2022-12-19T13:32:24.717Z,11.48
2022-12-19T13:35:06.278Z,12.77
2022-12-19T13:40:00.221Z,10.27
2022-12-19T13:40:51.439Z,15.88
2022-12-19T13:43:39.825Z,12.38
2022-12-19T13:46:23.550Z,13.75
2022-12-19T13:48:53.763Z,14.10
2022-12-19T13:51:21.679Z,13.00
2022-12-19T13:53:59.616Z,15.38
2022-12-19T13:56:31.863Z,12.30
2022-12-19T13:59:02.341Z,13.77
2022-12-19T14:01:33.096Z,12.75
2022-12-19T14:04:08.004Z,18.98
2022-12-19T14:06:41.995Z,20.42
2022-12-19T14:11:27.154Z,17.88
2022-12-19T14:13:50.759Z,19.33
2022-12-19T14:15:32.655Z,18.35
2022-12-19T14:18:41.842Z,16.35
2022-12-19T14:22:11.420Z,14.65
2022-12-19T14:23:44.047Z,13.30
2022-12-19T14:28:16.786Z,13.15
2022-12-19T14:29:15.577Z,12.93
2022-12-19T14:33:40.242Z,15.20
2022-12-19T14:35:22.387Z,10.25
2022-12-19T14:37:54.629Z,13.13
2022-12-19T14:40:26.867Z,14.13
2022-12-19T14:44:00.311Z,16.40
2022-12-19T14:54:04.230Z,16.30
2022-12-19T14:54:08.628Z,14.68
2022-12-19T14:54:42.092Z,13.75
2022-12-19T14:58:51.250Z,14.27
2022-12-19T15:01:08.879Z,19.45
2022-12-19T15:03:22.704Z,24.55
2022-12-19T15:05:51.620Z,19.55
2022-12-19T15:09:50.645Z,19.10
2022-12-19T15:11:54.031Z,18.65
2022-12-19T15:14:53.787Z,19.63
2022-12-19T15:17:28.389Z,22.77
2022-12-19T15:19:56.444Z,19.63
2022-12-19T15:22:24.476Z,28.65
2022-12-19T15:24:52.454Z,23.80
2022-12-19T15:27:21.747Z,16.00
2022-12-19T15:29:49.746Z,13.32
2022-12-19T15:32:18.016Z,15.85
2022-12-19T15:34:51.337Z,14.70
2022-12-19T15:37:19.809Z,21.98
2022-12-19T15:39:47.801Z,18.17
2022-12-19T15:42:20.586Z,16.00
2022-12-19T15:44:49.904Z,15.52
2022-12-19T15:47:20.555Z,14.93
2022-12-19T15:49:49.841Z,18.80
2022-12-19T15:52:19.196Z,15.05
2022-12-19T15:54:49.134Z,15.82
2022-12-19T15:57:25.664Z,15.13
2022-12-19T15:59:54.156Z,13.82
2022-12-19T16:02:27.918Z,16.15
2022-12-19T16:05:07.492Z,13.20
2022-12-19T16:07:35.551Z,11.40
2022-12-19T16:10:03.642Z,15.00
2022-12-19T16:12:36.711Z,14.48
2022-12-19T16:15:05.696Z,12.93
2022-12-19T16:17:34.306Z,13.93
2022-12-19T16:20:02.285Z,13.98
2022-12-19T16:22:31.681Z,15.07
2022-12-19T16:24:59.730Z,17.27
2022-12-19T16:27:30.002Z,15.80
2022-12-19T16:30:03.691Z,19.13
2022-12-19T16:32:31.651Z,16.92
2022-12-19T16:34:59.583Z,15.85
2022-12-19T16:37:32.164Z,15.85
2022-12-19T16:40:02.041Z,14.75
2022-12-19T16:42:31.023Z,21.50
2022-12-19T16:44:59.031Z,15.98
2022-12-19T16:47:27.028Z,15.85
2022-12-19T16:49:55.172Z,15.88
2022-12-19T16:52:23.282Z,16.67
2022-12-19T16:54:51.310Z,13.43
2022-12-19T16:57:23.283Z,15.35
2022-12-19T16:59:52.078Z,13.35
2022-12-19T17:02:40.459Z,13.07
2022-12-19T17:05:14.935Z,12.57
2022-12-19T17:07:42.947Z,13.52
2022-12-19T17:10:11.771Z,17.35
2022-12-19T17:12:41.713Z,14.23
2022-12-19T17:15:19.617Z,12.60
2022-12-19T17:17:47.710Z,11.57
2022-12-19T17:20:18.516Z,12.68
2022-12-19T17:22:46.559Z,11.38
2022-12-19T17:25:20.778Z,11.48
2022-12-19T17:27:50.951Z,15.15
2022-12-19T17:30:19.602Z,9.65
2022-12-19T17:32:50.108Z,10.27
2022-12-19T17:35:24.056Z,11.90
2022-12-19T17:37:56.953Z,13.95
2022-12-19T17:40:27.097Z,11.45
2022-12-19T17:42:56.588Z,10.60
2022-12-19T17:45:25.011Z,12.85
2022-12-19T17:48:00.399Z,13.63
2022-12-19T17:50:40.116Z,12.93
2022-12-19T17:53:13.553Z,12.23
2022-12-19T17:55:41.503Z,11.02
2022-12-19T17:58:11.199Z,13.70
2022-12-19T18:00:40.663Z,11.07
2022-12-19T18:03:18.886Z,11.68
2022-12-19T18:05:46.931Z,10.30
2022-12-19T18:08:25.991Z,11.50
2022-12-19T18:10:56.426Z,10.45
2022-12-19T18:13:26.791Z,9.07
2022-12-19T18:15:57.874Z,9.02
2022-12-19T18:18:29.145Z,8.85
2022-12-19T18:20:58.723Z,9.70
2022-12-19T18:23:26.995Z,13.10
2022-12-19T18:26:01.218Z,9.63
2022-12-19T18:28:31.848Z,9.60
2022-12-19T18:31:02.229Z,7.80
2022-12-19T18:33:36.025Z,8.57
2022-12-19T18:36:04.187Z,8.48
2022-12-19T18:38:32.661Z,8.88
2022-12-19T18:41:01.242Z,10.90
2022-12-19T18:43:31.040Z,6.38
2022-12-19T18:46:00.473Z,7.50
2022-12-19T18:48:30.047Z,7.65
2022-12-19T18:50:59.378Z,8.85
2022-12-19T18:53:35.222Z,10.02
2022-12-19T18:56:05.323Z,7.78
2022-12-19T18:58:34.155Z,7.97
2022-12-19T19:01:05.371Z,6.10
2022-12-19T19:03:35.370Z,7.85
2022-12-19T19:06:05.403Z,5.45
2022-12-19T19:08:34.951Z,6.88
2022-12-19T19:11:02.834Z,5.82
2022-12-19T19:13:31.490Z,5.05
2022-12-19T19:16:01.470Z,5.85
2022-12-19T19:18:35.123Z,10.35
2022-12-19T19:21:03.810Z,6.85
2022-12-19T19:23:37.419Z,6.88
2022-12-19T19:26:06.826Z,8.10
2022-12-19T19:28:37.132Z,6.78
2022-12-19T19:31:09.902Z,7.37
2022-12-19T19:33:43.639Z,7.10
2022-12-19T19:36:16.775Z,7.28
2022-12-19T19:38:47.688Z,7.43
2022-12-19T19:41:15.833Z,5.72
2022-12-19T19:43:43.828Z,6.65
2022-12-19T19:46:13.047Z,6.63
2022-12-19T19:48:42.775Z,8.65
2022-12-19T19:51:12.212Z,4.57
2022-12-19T19:53:40.414Z,5.07
2022-12-19T19:56:08.866Z,4.80
2022-12-19T19:58:37.035Z,6.35
2022-12-19T20:01:08.933Z,4.45
2022-12-19T20:03:37.275Z,5.35
2022-12-19T20:06:07.413Z,7.00
2022-12-19T20:08:39.705Z,4.78
2022-12-19T20:11:09.022Z,5.88
2022-12-19T20:13:37.727Z,6.03
2022-12-19T20:16:07.574Z,5.05
2022-12-19T20:18:36.173Z,7.00
2022-12-19T20:21:09.197Z,6.40
2022-12-19T20:23:43.495Z,6.47
2022-12-19T20:26:13.268Z,6.07
2022-12-19T20:28:48.444Z,8.32
2022-12-19T20:31:19.259Z,5.80
2022-12-19T20:33:48.280Z,6.82
2022-12-19T20:36:16.838Z,6.13
2022-12-19T20:38:46.304Z,5.97
2022-12-19T20:41:14.518Z,6.35
2022-12-19T20:43:42.516Z,5.97
2022-12-19T20:46:13.300Z,5.95
2022-12-19T20:48:42.328Z,5.50
2022-12-19T20:51:10.946Z,5.97
2022-12-19T20:53:39.888Z,7.07
2022-12-19T20:56:11.572Z,6.25
2022-12-19T20:58:39.774Z,6.00
2022-12-19T21:01:09.544Z,5.90
2022-12-19T21:03:38.584Z,6.43
2022-12-19T21:06:09.192Z,6.07
2022-12-19T21:08:37.605Z,9.57
2022-12-19T21:11:07.062Z,11.65
2022-12-19T21:13:37.917Z,5.80
2022-12-19T21:16:08.647Z,6.95
2022-12-19T21:18:37.842Z,6.93
2022-12-19T21:21:06.581Z,6.63
2022-12-19T21:23:35.556Z,5.90
2022-12-19T21:26:05.849Z,6.70
2022-12-19T21:28:35.826Z,6.32
2022-12-19T21:31:06.008Z,6.18
2022-12-19T21:33:34.495Z,6.95
2022-12-19T21:36:07.873Z,7.53
2022-12-19T21:38:36.153Z,7.05
2022-12-19T21:41:05.121Z,7.80
2022-12-19T21:43:33.530Z,7.38
2022-12-19T21:46:11.406Z,7.90
2022-12-19T21:48:40.885Z,8.25
2022-12-19T21:51:09.254Z,8.80
2022-12-19T21:53:38.677Z,11.10
2022-12-19T21:56:08.577Z,12.40
2022-12-19T21:58:36.614Z,9.45
2022-12-19T22:01:08.263Z,9.13
2022-12-19T22:03:38.418Z,7.40
2022-12-19T22:06:09.123Z,7.57
2022-12-19T22:08:37.340Z,9.73
2022-12-19T22:11:05.354Z,8.77
2022-12-19T22:13:33.347Z,8.45
2022-12-19T22:16:02.418Z,7.25
2022-12-19T22:18:30.485Z,8.80
2022-12-19T22:21:00.221Z,8.10
2022-12-19T22:23:28.368Z,7.63
2022-12-19T22:26:04.207Z,7.20
2022-12-19T22:28:32.928Z,6.10
2022-12-19T22:31:01.317Z,7.82
2022-12-19T22:33:29.453Z,7.85
2022-12-19T22:35:58.983Z,6.43
2022-12-19T22:38:27.289Z,6.68
2022-12-19T22:40:55.277Z,6.07
2022-12-19T22:43:23.820Z,8.52
2022-12-19T22:45:51.904Z,5.70
2022-12-19T22:48:19.802Z,7.88
2022-12-19T22:50:47.918Z,8.02
2022-12-19T22:53:17.420Z,6.85
2022-12-19T22:55:45.287Z,6.80
2022-12-19T22:58:13.311Z,5.82
2022-12-19T23:00:41.238Z,5.28
2022-12-19T23:03:09.279Z,6.28
2022-12-19T23:05:37.787Z,6.57
2022-12-19T23:08:06.198Z,6.63
2022-12-19T23:10:35.541Z,7.32
2022-12-19T23:13:03.467Z,5.53
2022-12-19T23:15:31.418Z,6.80
2022-12-19T23:17:59.447Z,6.45
2022-12-19T23:20:27.445Z,8.38
2022-12-19T23:22:55.419Z,10.75
2022-12-19T23:25:23.541Z,9.40
2022-12-19T23:28:06.381Z,6.07
2022-12-19T23:30:34.515Z,7.53
2022-12-19T23:33:02.852Z,7.32
2022-12-19T23:35:33.532Z,7.43
2022-12-19T23:38:01.447Z,13.38
2022-12-19T23:40:29.458Z,5.97
2022-12-19T23:42:57.434Z,6.18
2022-12-19T23:45:27.015Z,4.47
2022-12-19T23:47:54.968Z,4.63
2022-12-19T23:50:23.003Z,5.85
2022-12-19T23:52:50.908Z,4.68
2022-12-19T23:55:18.947Z,2.55
2022-12-19T23:57:46.852Z,4.63
